createdAt,value
2018-11-10T00:01:08.912Z,72.70
2018-11-10T00:06:12.514Z,73.10
2018-11-10T00:11:16.078Z,72.80
2018-11-10T00:16:20.695Z,72.50
2018-11-10T00:21:24.514Z,72.30
2018-11-10T00:26:28.387Z,72.40
2018-11-10T00:31:31.965Z,72.10
2018-11-10T00:36:35.935Z,72.50
2018-11-10T00:41:39.772Z,72.70
2018-11-10T00:46:43.847Z,72.70
2018-11-10T00:51:47.429Z,72.40
2018-11-10T00:56:53.089Z,72.40
2018-11-10T01:01:56.711Z,71.20
2018-11-10T01:07:00.927Z,70.60
2018-11-10T01:12:05.411Z,70.70
2018-11-10T01:17:09.000Z,70.90
2018-11-10T01:22:12.863Z,70.90
2018-11-10T01:27:16.735Z,71.00
2018-11-10T01:32:20.314Z,71.20
2018-11-10T01:37:24.039Z,71.50
2018-11-10T01:42:27.662Z,70.90
2018-11-10T01:47:34.024Z,70.90
2018-11-10T01:52:37.619Z,71.10
2018-11-10T01:57:45.609Z,71.10
2018-11-10T02:02:49.474Z,71.10
2018-11-10T02:07:53.063Z,71.40
2018-11-10T02:12:57.555Z,72.10
2018-11-10T02:18:01.495Z,71.90
2018-11-10T02:23:05.580Z,71.30
2018-11-10T02:28:09.887Z,71.30
2018-11-10T02:33:14.593Z,71.30
2018-11-10T02:38:19.390Z,71.70
2018-11-10T02:43:22.955Z,71.90
2018-11-10T02:48:26.674Z,71.30
2018-11-10T02:53:30.892Z,71.80
2018-11-10T02:58:34.527Z,72.10
2018-11-10T03:03:38.109Z,72.30
2018-11-10T03:08:41.770Z,72.50
2018-11-10T03:13:46.024Z,72.30
2018-11-10T03:18:49.687Z,72.00
2018-11-10T03:23:53.328Z,72.80
2018-11-10T03:28:57.763Z,72.00
2018-11-10T03:34:02.699Z,72.70
2018-11-10T03:39:09.515Z,72.10
2018-11-10T03:44:13.168Z,71.90
2018-11-10T03:49:17.087Z,72.00
2018-11-10T03:54:20.817Z,71.90
2018-11-10T03:59:24.599Z,71.70
2018-11-10T04:04:28.203Z,71.50
2018-11-10T04:09:31.936Z,71.80
2018-11-10T04:14:35.649Z,72.20
2018-11-10T04:19:39.770Z,72.20
2018-11-10T04:24:43.406Z,72.00
2018-11-10T04:29:47.086Z,71.90
2018-11-10T04:34:52.100Z,71.60
2018-11-10T04:39:56.278Z,71.90
2018-11-10T04:44:59.896Z,72.10
2018-11-10T04:50:04.236Z,72.10
2018-11-10T04:55:08.863Z,72.20
2018-11-10T05:00:15.939Z,72.40
2018-11-10T05:05:20.037Z,72.20
2018-11-10T05:10:23.729Z,72.60
2018-11-10T05:15:27.363Z,72.30
2018-11-10T05:20:31.296Z,72.40
2018-11-10T05:25:35.008Z,72.00
2018-11-10T05:30:38.610Z,72.20
2018-11-10T05:35:42.914Z,72.40
2018-11-10T05:40:46.750Z,72.50
2018-11-10T05:45:50.993Z,73.10
2018-11-10T05:50:54.613Z,72.80
2018-11-10T05:55:58.242Z,72.70
2018-11-10T06:01:01.915Z,72.40
2018-11-10T06:06:06.702Z,72.50
2018-11-10T06:11:10.650Z,72.50
2018-11-10T06:16:14.576Z,72.80
2018-11-10T06:21:18.123Z,72.70
2018-11-10T06:26:21.740Z,73.10
2018-11-10T06:31:25.447Z,73.10
2018-11-10T06:36:29.460Z,73.20
2018-11-10T06:41:33.141Z,72.70
2018-11-10T06:46:36.747Z,73.10
2018-11-10T06:51:40.347Z,73.20
2018-11-10T06:56:44.673Z,73.50
2018-11-10T07:01:48.540Z,73.70
2018-11-10T07:06:52.966Z,73.70
2018-11-10T07:11:57.033Z,73.70
2018-11-10T07:17:01.309Z,74.00
2018-11-10T07:22:05.505Z,74.00
2018-11-10T07:27:09.173Z,73.70
2018-11-10T07:32:12.768Z,73.90
2018-11-10T07:37:16.510Z,73.50
2018-11-10T07:42:20.176Z,72.80
2018-11-10T07:47:23.927Z,72.80
2018-11-10T07:52:27.565Z,72.50
2018-11-10T07:57:31.663Z,72.20
2018-11-10T08:02:35.797Z,72.80
2018-11-10T08:07:41.620Z,73.10
2018-11-10T08:12:45.435Z,72.70
2018-11-10T08:17:49.063Z,72.60
2018-11-10T08:22:52.720Z,72.60
2018-11-10T08:27:56.315Z,71.50
2018-11-10T08:32:59.941Z,71.90
2018-11-10T08:38:04.538Z,71.90
2018-11-10T08:43:08.465Z,71.80
2018-11-10T08:48:12.237Z,71.50
2018-11-10T08:53:15.920Z,72.10
2018-11-10T08:58:19.595Z,71.90
2018-11-10T09:03:23.209Z,71.90
2018-11-10T09:08:26.854Z,71.40
2018-11-10T09:13:30.488Z,72.30
2018-11-10T09:18:34.840Z,71.80
2018-11-10T09:23:38.551Z,71.80
2018-11-10T09:28:42.150Z,72.20
2018-11-10T09:33:45.830Z,72.40
2018-11-10T09:38:50.061Z,72.10
2018-11-10T09:43:53.954Z,72.40
2018-11-10T09:48:57.533Z,72.70
2018-11-10T09:54:01.121Z,73.10
2018-11-10T09:59:04.825Z,71.30
2018-11-10T10:04:08.619Z,70.60
2018-11-10T10:09:12.444Z,71.30
2018-11-10T10:14:16.243Z,71.50
2018-11-10T10:19:19.981Z,71.40
2018-11-10T10:24:23.573Z,70.60
2018-11-10T10:29:27.182Z,70.10
2018-11-10T10:34:30.861Z,69.30
2018-11-10T10:39:34.444Z,68.80
2018-11-10T10:44:38.887Z,68.90
2018-11-10T10:49:42.502Z,68.70
2018-11-10T10:54:46.102Z,67.50
2018-11-10T10:59:50.167Z,67.80
2018-11-10T11:04:54.674Z,66.80
2018-11-10T11:09:58.554Z,66.60
2018-11-10T11:15:02.233Z,66.20
2018-11-10T11:20:06.751Z,66.30
2018-11-10T11:25:10.493Z,65.70
2018-11-10T11:30:14.181Z,66.30
2018-11-10T11:35:17.973Z,66.90
2018-11-10T11:40:21.801Z,67.10
2018-11-10T11:45:25.919Z,66.70
2018-11-10T11:50:29.692Z,66.60
2018-11-10T11:55:33.757Z,67.00
2018-11-10T12:00:37.334Z,65.70
2018-11-10T12:05:41.759Z,63.70
2018-11-10T12:10:46.518Z,63.30
2018-11-10T12:15:50.160Z,64.50
2018-11-10T12:20:54.865Z,64.10
2018-11-10T12:25:58.574Z,63.90
2018-11-10T12:31:02.351Z,63.10
2018-11-10T12:36:06.173Z,59.90
2018-11-10T12:41:09.939Z,60.00
2018-11-10T12:46:13.620Z,59.00
2018-11-10T12:51:17.326Z,56.20
2018-11-10T12:56:21.146Z,54.80
2018-11-10T13:01:26.680Z,54.00
2018-11-10T13:06:31.165Z,52.10
2018-11-10T13:11:35.200Z,52.80
2018-11-10T13:16:45.583Z,54.40
2018-11-10T13:21:49.259Z,53.70
2018-11-10T13:26:55.725Z,52.90
2018-11-10T13:31:59.545Z,54.50
2018-11-10T13:37:03.220Z,54.30
2018-11-10T13:42:07.172Z,53.10
2018-11-10T13:47:11.013Z,53.20
2018-11-10T13:52:15.143Z,52.80
2018-11-10T13:57:18.877Z,52.80
2018-11-10T14:02:22.837Z,52.20
2018-11-10T14:07:26.432Z,53.30
2018-11-10T14:12:30.186Z,53.30
2018-11-10T14:17:33.814Z,53.10
2018-11-10T14:22:38.336Z,54.00
2018-11-10T14:27:42.970Z,53.40
2018-11-10T14:32:47.059Z,53.40
2018-11-10T14:37:51.079Z,54.20
2018-11-10T14:42:55.107Z,54.60
2018-11-10T14:47:59.221Z,54.70
2018-11-10T14:53:03.213Z,55.50
2018-11-10T14:58:07.375Z,56.10
2018-11-10T15:03:11.370Z,57.20
2018-11-10T15:08:15.588Z,57.50
2018-11-10T15:13:19.578Z,57.50
2018-11-10T15:18:23.667Z,57.80
2018-11-10T15:23:27.623Z,58.50
2018-11-10T15:28:31.230Z,58.90
2018-11-10T15:33:34.839Z,58.90
2018-11-10T15:38:39.041Z,58.70
2018-11-10T15:43:42.786Z,58.80
2018-11-10T15:48:46.387Z,59.40
2018-11-10T15:53:51.552Z,59.50
2018-11-10T15:58:55.180Z,60.40
2018-11-10T16:03:58.839Z,61.00
2018-11-10T16:09:02.423Z,62.10
2018-11-10T16:14:06.068Z,62.20
2018-11-10T16:19:09.684Z,62.80
2018-11-10T16:24:13.347Z,63.10
2018-11-10T16:29:16.950Z,63.40
2018-11-10T16:34:20.522Z,63.60
2018-11-10T16:39:25.741Z,63.60
2018-11-10T16:44:29.594Z,64.30
2018-11-10T16:49:33.222Z,64.50
2018-11-10T16:54:36.826Z,64.70
2018-11-10T16:59:40.578Z,64.40
2018-11-10T17:04:44.179Z,65.10
2018-11-10T17:09:48.922Z,65.80
2018-11-10T17:14:52.592Z,66.00
2018-11-10T17:19:56.252Z,66.20
2018-11-10T17:24:59.884Z,66.60
2018-11-10T17:30:03.730Z,66.30
2018-11-10T17:35:08.423Z,66.30
2018-11-10T17:40:13.009Z,66.30
2018-11-10T17:45:18.001Z,66.80
2018-11-10T17:50:22.563Z,68.00
2018-11-10T17:55:26.195Z,68.80
2018-11-10T18:00:29.862Z,67.80
2018-11-10T18:05:33.517Z,67.60
2018-11-10T18:10:37.136Z,67.90
2018-11-10T18:15:40.713Z,68.10
2018-11-10T18:20:44.402Z,68.40
2018-11-10T18:25:48.168Z,68.40
2018-11-10T18:30:51.867Z,69.20
2018-11-10T18:35:55.546Z,68.40
2018-11-10T18:40:59.204Z,68.40
2018-11-10T18:46:02.938Z,68.50
2018-11-10T18:51:06.716Z,68.30
2018-11-10T18:56:10.340Z,68.80
2018-11-10T19:01:14.307Z,68.80
2018-11-10T19:06:17.918Z,69.00
2018-11-10T19:11:21.817Z,69.00
2018-11-10T19:16:28.598Z,69.70
2018-11-10T19:21:33.241Z,69.10
2018-11-10T19:26:39.577Z,69.20
2018-11-10T19:31:43.305Z,69.50
2018-11-10T19:36:47.617Z,69.80
2018-11-10T19:41:51.440Z,70.00
2018-11-10T19:46:55.086Z,69.90
2018-11-10T19:51:58.889Z,69.70
2018-11-10T19:57:02.552Z,70.10
2018-11-10T20:02:10.123Z,70.10
2018-11-10T20:07:13.766Z,71.70
2018-11-10T20:12:17.404Z,73.00
2018-11-10T20:17:21.187Z,73.20
2018-11-10T20:22:25.048Z,72.60
2018-11-10T20:27:28.979Z,72.40
2018-11-10T20:32:32.626Z,72.30
2018-11-10T20:37:39.004Z,72.40
2018-11-10T20:42:42.913Z,72.20
2018-11-10T20:47:46.518Z,71.90
2018-11-10T20:52:51.056Z,71.60
2018-11-10T20:57:54.673Z,71.70
2018-11-10T21:02:58.304Z,72.00
2018-11-10T21:08:02.572Z,72.30
2018-11-10T21:13:06.247Z,72.40
2018-11-10T21:18:10.100Z,72.20
2018-11-10T21:23:13.767Z,70.90
2018-11-10T21:28:17.367Z,71.20
2018-11-10T21:33:21.361Z,71.30
2018-11-10T21:38:25.314Z,72.20
2018-11-10T21:43:29.651Z,72.80
2018-11-10T21:48:33.247Z,74.80
2018-11-10T21:53:36.835Z,75.60
2018-11-10T21:58:40.636Z,75.60
2018-11-10T22:03:44.251Z,74.70
2018-11-10T22:08:47.816Z,74.60
2018-11-10T22:13:51.623Z,74.40
2018-11-10T22:18:55.176Z,74.00
2018-11-10T22:23:58.787Z,73.80
2018-11-10T22:29:02.364Z,73.30
2018-11-10T22:34:06.146Z,73.00
2018-11-10T22:39:10.752Z,72.90
2018-11-10T22:44:14.363Z,72.70
2018-11-10T22:49:17.992Z,72.50
2018-11-10T22:54:21.749Z,73.10
2018-11-10T22:59:25.375Z,73.50
2018-11-10T23:04:29.688Z,73.20
2018-11-10T23:09:33.389Z,73.10
2018-11-10T23:14:36.983Z,73.50
2018-11-10T23:19:40.852Z,73.60
2018-11-10T23:24:44.711Z,73.80
2018-11-10T23:29:48.302Z,74.40
2018-11-10T23:34:51.927Z,73.40
2018-11-10T23:39:55.592Z,73.20
2018-11-10T23:44:59.191Z,73.40
2018-11-10T23:50:03.113Z,73.30
2018-11-10T23:55:07.989Z,73.50
